Time;durP1;ratioP1;P1;durP2;ratioP2;P2;SDS_P1;SDS_P2;PMS_P1;PMS_P2;Temp;Humidity;BMP_temperature;BMP_pressure;BME280_temperature;BME280_humidity;BME280_pressure;Samples;Min_cycle;Max_cycle;Signal;HPM_P1;HPM_P2
2023/08/17 00:01:49;;;;;;;5.07;1.85;;;;;;;;;;5029125;28;20203;-70
2023/08/17 00:04:18;;;;;;;5.13;1.92;;;;;;;;;;5020048;28;20206;-70
2023/08/17 00:06:46;;;;;;;7.88;2.10;;;;;;;;;;5020051;28;20204;-68
2023/08/17 00:09:14;;;;;;;1.85;1.75;;;;;;;;;;5023364;28;20191;-68
2023/08/17 00:11:41;;;;;;;3.22;1.80;;;;;;;;;;5021696;28;20204;-70
2023/08/17 00:14:08;;;;;;;27.45;2.60;;;;;;;;;;5024234;28;20204;-70
2023/08/17 00:16:35;;;;;;;148.38;5.20;;;;;;;;;;5022485;28;20215;-70
2023/08/17 00:19:02;;;;;;;58.17;2.83;;;;;;;;;;5013035;28;20227;-70
2023/08/17 00:21:31;;;;;;;29.80;2.20;;;;;;;;;;5020402;28;20254;-71
2023/08/17 00:23:58;;;;;;;18.50;1.95;;;;;;;;;;5024032;28;20200;-70
2023/08/17 00:26:25;;;;;;;8.40;1.33;;;;;;;;;;5023683;28;20204;-70
2023/08/17 00:28:53;;;;;;;12.52;1.65;;;;;;;;;;5024398;28;20215;-69
2023/08/17 00:31:20;;;;;;;13.77;1.80;;;;;;;;;;5025737;28;20209;-71
2023/08/17 00:33:47;;;;;;;3.63;1.45;;;;;;;;;;5019618;28;20208;-68
2023/08/17 00:36:14;;;;;;;47.92;2.33;;;;;;;;;;5020246;28;20193;-70
2023/08/17 00:38:43;;;;;;;36.58;2.53;;;;;;;;;;5020959;28;20271;-69
2023/08/17 00:41:10;;;;;;;37.22;2.28;;;;;;;;;;5027306;28;20197;-71
2023/08/17 00:43:37;;;;;;;38.88;2.50;;;;;;;;;;5024387;28;20339;-71
2023/08/17 00:46:04;;;;;;;9.40;1.92;;;;;;;;;;5022261;28;20212;-70
2023/08/17 00:48:32;;;;;;;12.43;2.42;;;;;;;;;;5021770;28;20197;-70
2023/08/17 00:50:59;;;;;;;30.08;3.03;;;;;;;;;;5022506;28;20200;-71
2023/08/17 00:53:28;;;;;;;41.55;2.88;;;;;;;;;;5017699;28;20299;-69
2023/08/17 00:55:56;;;;;;;14.38;2.25;;;;;;;;;;5023152;28;20300;-70
2023/08/17 00:58:23;;;;;;;4.68;1.90;;;;;;;;;;5020486;28;20200;-71
2023/08/17 01:00:51;;;;;;;189.75;6.93;;;;;;;;;;5023869;28;20319;-69
2023/08/17 01:03:18;;;;;;;39.50;3.33;;;;;;;;;;5024754;28;20275;-71
2023/08/17 01:05:46;;;;;;;8.35;2.08;;;;;;;;;;5027535;28;20208;-70
2023/08/17 01:08:13;;;;;;;153.27;6.40;;;;;;;;;;5019578;28;20196;-71
2023/08/17 01:10:46;;;;;;;14.75;2.53;;;;;;;;;;5018098;28;20204;-70
2023/08/17 01:13:17;;;;;;;3.17;2.28;;;;;;;;;;5024291;28;20215;-70
2023/08/17 01:15:47;;;;;;;5.32;2.60;;;;;;;;;;5017369;28;20205;-70
2023/08/17 01:18:19;;;;;;;2.78;1.98;;;;;;;;;;5022297;28;20239;-71
2023/08/17 01:20:46;;;;;;;3.60;2.20;;;;;;;;;;5023673;28;20204;-69
2023/08/17 01:23:15;;;;;;;2.83;2.00;;;;;;;;;;5019184;28;20214;-71
2023/08/17 01:25:42;;;;;;;2.97;2.50;;;;;;;;;;5020841;28;20239;-68
2023/08/17 01:28:09;;;;;;;2.97;2.67;;;;;;;;;;5028722;28;20200;-71
2023/08/17 01:30:41;;;;;;;5.75;2.80;;;;;;;;;;5026633;28;20214;-69
2023/08/17 01:33:08;;;;;;;2.95;2.70;;;;;;;;;;5019751;28;20223;-70
2023/08/17 01:35:39;;;;;;;3.25;3.00;;;;;;;;;;5027985;28;20278;-70
2023/08/17 01:38:08;;;;;;;8.20;3.20;;;;;;;;;;5024324;28;20211;-70
2023/08/17 01:40:37;;;;;;;22.70;3.97;;;;;;;;;;5028618;28;20243;-69
2023/08/17 01:43:04;;;;;;;29.08;3.78;;;;;;;;;;5021913;28;20208;-70
2023/08/17 01:45:31;;;;;;;14.13;3.78;;;;;;;;;;5024042;28;20200;-69
2023/08/17 01:47:58;;;;;;;45.80;4.20;;;;;;;;;;5018753;28;20212;-70
2023/08/17 01:50:26;;;;;;;9.00;3.25;;;;;;;;;;5024241;28;20208;-69
2023/08/17 01:52:53;;;;;;;6.57;2.72;;;;;;;;;;5022069;28;20211;-70
2023/08/17 01:55:22;;;;;;;3.30;3.00;;;;;;;;;;5021432;28;20215;-69
2023/08/17 01:57:51;;;;;;;19.40;3.63;;;;;;;;;;5023394;28;20207;-70
2023/08/17 02:00:18;;;;;;;19.90;3.50;;;;;;;;;;5028976;28;20236;-70
2023/08/17 02:02:45;;;;;;;141.60;6.07;;;;;;;;;;5022003;28;20204;-70
2023/08/17 02:05:12;;;;;;;69.28;4.30;;;;;;;;;;5027667;28;20204;-71
2023/08/17 02:07:40;;;;;;;16.08;3.22;;;;;;;;;;5030968;28;20207;-69
2023/08/17 02:10:07;;;;;;;8.68;3.05;;;;;;;;;;5025863;28;20201;-70
2023/08/17 02:12:35;;;;;;;5.45;2.75;;;;;;;;;;5029248;28;20223;-71
2023/08/17 02:15:03;;;;;;;54.55;4.10;;;;;;;;;;5029801;28;20208;-70
2023/08/17 02:17:30;;;;;;;3.17;2.60;;;;;;;;;;5022323;28;20216;-70
2023/08/17 02:19:57;;;;;;;12.70;3.08;;;;;;;;;;5026073;28;20221;-70
2023/08/17 02:22:24;;;;;;;13.98;3.10;;;;;;;;;;5025897;28;20214;-70
2023/08/17 02:24:52;;;;;;;16.60;3.00;;;;;;;;;;5019874;28;20211;-69
2023/08/17 02:27:19;;;;;;;3.42;2.72;;;;;;;;;;5025612;28;20204;-70
2023/08/17 02:29:46;;;;;;;3.60;2.38;;;;;;;;;;5020567;28;20298;-70
2023/08/17 02:32:16;;;;;;;8.35;2.92;;;;;;;;;;5026803;28;20212;-71
2023/08/17 02:34:43;;;;;;;4.60;2.40;;;;;;;;;;5026085;28;20302;-69
2023/08/17 02:37:10;;;;;;;7.47;2.65;;;;;;;;;;5029100;28;20303;-70
2023/08/17 02:39:37;;;;;;;2.65;2.45;;;;;;;;;;5024491;28;20216;-70
2023/08/17 02:42:04;;;;;;;12.88;2.80;;;;;;;;;;5020564;28;20216;-70
2023/08/17 02:44:32;;;;;;;3.15;2.60;;;;;;;;;;5026165;28;20205;-70
2023/08/17 02:46:59;;;;;;;3.28;2.83;;;;;;;;;;5027442;28;20200;-70
2023/08/17 02:49:27;;;;;;;2.45;2.30;;;;;;;;;;5022747;28;20202;-69
2023/08/17 02:51:54;;;;;;;3.22;2.83;;;;;;;;;;5023749;28;20212;-71
2023/08/17 02:54:22;;;;;;;2.70;2.50;;;;;;;;;;5025165;28;20208;-70
2023/08/17 02:56:49;;;;;;;14.10;3.30;;;;;;;;;;5023313;28;20254;-71
2023/08/17 02:59:16;;;;;;;11.77;3.33;;;;;;;;;;5030214;28;20244;-71
2023/08/17 03:01:43;;;;;;;2.60;2.38;;;;;;;;;;5029185;28;20207;-70
2023/08/17 03:04:10;;;;;;;26.95;3.38;;;;;;;;;;5021473;28;20299;-70
2023/08/17 03:06:39;;;;;;;4.07;2.75;;;;;;;;;;5027955;28;20205;-71
2023/08/17 03:09:06;;;;;;;6.10;3.25;;;;;;;;;;5025778;28;20195;-70
2023/08/17 03:11:33;;;;;;;4.07;2.72;;;;;;;;;;5029072;28;20204;-70
2023/08/17 03:14:01;;;;;;;12.70;3.05;;;;;;;;;;5027702;28;20204;-71
2023/08/17 03:16:29;;;;;;;3.00;2.80;;;;;;;;;;5027368;28;20270;-71
2023/08/17 03:18:57;;;;;;;5.63;3.00;;;;;;;;;;5022880;28;20196;-70
2023/08/17 03:21:24;;;;;;;3.50;3.30;;;;;;;;;;5024358;28;20228;-71
2023/08/17 03:23:52;;;;;;;5.35;3.05;;;;;;;;;;5022110;28;20204;-71
2023/08/17 03:26:19;;;;;;;5.63;3.17;;;;;;;;;;5026374;28;20205;-71
2023/08/17 03:28:47;;;;;;;4.80;3.08;;;;;;;;;;5030209;28;20209;-70
2023/08/17 03:31:14;;;;;;;3.30;3.10;;;;;;;;;;5032131;28;20203;-69
2023/08/17 03:33:41;;;;;;;3.90;2.95;;;;;;;;;;5025022;28;20215;-70
2023/08/17 03:36:08;;;;;;;8.57;3.50;;;;;;;;;;5020959;28;20200;-71
2023/08/17 03:38:37;;;;;;;7.57;3.53;;;;;;;;;;5024650;28;20205;-70
2023/08/17 03:41:06;;;;;;;3.45;3.15;;;;;;;;;;5028331;28;20228;-71
2023/08/17 03:43:33;;;;;;;3.85;3.55;;;;;;;;;;5020451;28;20208;-71
2023/08/17 03:46:00;;;;;;;4.65;3.17;;;;;;;;;;5030386;28;20211;-71
2023/08/17 03:48:27;;;;;;;9.15;3.47;;;;;;;;;;5019061;28;20247;-71
2023/08/17 03:50:55;;;;;;;16.13;3.95;;;;;;;;;;5025411;28;20506;-70
2023/08/17 03:53:22;;;;;;;6.55;3.67;;;;;;;;;;5038008;28;20196;-70
2023/08/17 03:55:50;;;;;;;5.15;3.75;;;;;;;;;;5024807;28;20211;-71
2023/08/17 03:58:19;;;;;;;4.32;3.55;;;;;;;;;;5023998;28;20212;-71
2023/08/17 04:00:50;;;;;;;8.80;3.78;;;;;;;;;;5018726;28;20236;-69
2023/08/17 04:03:17;;;;;;;10.40;4.22;;;;;;;;;;5024267;28;20231;-71
2023/08/17 04:05:44;;;;;;;3.80;3.42;;;;;;;;;;5019800;28;20197;-71
2023/08/17 04:08:12;;;;;;;14.90;4.25;;;;;;;;;;5021290;28;20295;-71
2023/08/17 04:10:39;;;;;;;4.53;4.13;;;;;;;;;;5029270;28;20206;-71
2023/08/17 04:13:06;;;;;;;9.38;4.18;;;;;;;;;;5030583;28;20222;-71
2023/08/17 04:15:34;;;;;;;8.77;4.28;;;;;;;;;;5025998;28;20204;-70
2023/08/17 04:18:02;;;;;;;8.68;4.35;;;;;;;;;;5024443;28;20242;-70
2023/08/17 04:20:29;;;;;;;9.68;3.70;;;;;;;;;;5023856;28;20228;-70
2023/08/17 04:22:56;;;;;;;8.98;4.40;;;;;;;;;;5027076;28;20204;-70
2023/08/17 04:25:23;;;;;;;14.20;4.68;;;;;;;;;;5022692;28;20207;-68
2023/08/17 04:27:50;;;;;;;9.90;4.53;;;;;;;;;;5020441;28;20201;-71
2023/08/17 04:30:17;;;;;;;5.20;4.00;;;;;;;;;;5021760;28;20203;-70
2023/08/17 04:32:50;;;;;;;12.45;5.10;;;;;;;;;;5018676;28;20213;-70
2023/08/17 04:35:17;;;;;;;14.02;4.65;;;;;;;;;;5025230;28;20246;-70
2023/08/17 04:37:44;;;;;;;34.28;5.00;;;;;;;;;;5018681;28;20208;-71
2023/08/17 04:40:12;;;;;;;30.65;4.75;;;;;;;;;;5021799;28;20238;-70
2023/08/17 04:42:39;;;;;;;18.20;4.68;;;;;;;;;;5021595;28;20209;-71
2023/08/17 04:45:07;;;;;;;7.15;4.10;;;;;;;;;;5017526;28;20223;-70
2023/08/17 04:47:34;;;;;;;6.20;4.78;;;;;;;;;;5017481;28;20210;-69
2023/08/17 04:50:02;;;;;;;18.67;4.80;;;;;;;;;;5016290;28;20487;-70
2023/08/17 04:52:30;;;;;;;11.07;4.88;;;;;;;;;;5026073;28;20208;-70
2023/08/17 04:54:57;;;;;;;9.93;4.22;;;;;;;;;;5022262;28;20215;-69
2023/08/17 04:57:24;;;;;;;4.70;3.65;;;;;;;;;;5024469;28;20221;-71
2023/08/17 04:59:51;;;;;;;7.18;4.50;;;;;;;;;;5029107;28;20239;-70
2023/08/17 05:02:18;;;;;;;5.35;4.35;;;;;;;;;;5022699;28;20219;-70
2023/08/17 05:04:48;;;;;;;4.90;4.40;;;;;;;;;;5025121;28;20215;-69
2023/08/17 05:07:16;;;;;;;5.00;4.13;;;;;;;;;;5023314;28;20214;-70
2023/08/17 05:09:43;;;;;;;4.65;4.10;;;;;;;;;;5025001;28;20201;-69
2023/08/17 05:12:10;;;;;;;6.50;4.47;;;;;;;;;;5024595;28;20204;-70
2023/08/17 05:14:38;;;;;;;4.13;3.78;;;;;;;;;;5031735;28;20207;-71
2023/08/17 05:17:05;;;;;;;4.93;4.00;;;;;;;;;;5020471;28;20204;-70
2023/08/17 05:19:32;;;;;;;4.05;3.50;;;;;;;;;;5028411;28;20282;-70
2023/08/17 05:21:59;;;;;;;4.50;3.80;;;;;;;;;;5027038;28;20216;-70
2023/08/17 05:24:28;;;;;;;4.50;4.10;;;;;;;;;;5022460;28;20204;-70
2023/08/17 05:26:55;;;;;;;4.05;3.65;;;;;;;;;;5023994;28;20200;-69
2023/08/17 05:29:22;;;;;;;5.88;3.40;;;;;;;;;;5026756;28;20222;-71
2023/08/17 05:31:49;;;;;;;3.72;3.28;;;;;;;;;;5025218;28;20227;-71
2023/08/17 05:34:17;;;;;;;3.95;3.60;;;;;;;;;;5023871;28;20220;-68
2023/08/17 05:36:44;;;;;;;3.53;3.22;;;;;;;;;;5025273;28;20208;-70
2023/08/17 05:39:11;;;;;;;3.60;3.30;;;;;;;;;;5028318;28;20200;-69
2023/08/17 05:41:39;;;;;;;5.43;3.78;;;;;;;;;;5020632;28;20227;-62
2023/08/17 05:44:07;;;;;;;3.85;3.45;;;;;;;;;;5029920;28;20196;-63
2023/08/17 05:46:34;;;;;;;4.05;3.30;;;;;;;;;;5023309;28;20255;-63
2023/08/17 05:49:02;;;;;;;2.63;2.42;;;;;;;;;;5029049;28;20225;-62
2023/08/17 05:51:29;;;;;;;2.90;2.70;;;;;;;;;;5025963;28;20201;-63
2023/08/17 05:53:56;;;;;;;3.28;2.97;;;;;;;;;;5020970;28;20204;-62
2023/08/17 05:56:23;;;;;;;4.35;3.40;;;;;;;;;;5022961;28;20256;-63
2023/08/17 05:58:52;;;;;;;3.25;3.05;;;;;;;;;;5024881;28;20211;-64
2023/08/17 06:01:19;;;;;;;3.83;3.53;;;;;;;;;;5025621;28;20224;-64
2023/08/17 06:03:46;;;;;;;3.45;3.15;;;;;;;;;;5023955;28;20232;-63
2023/08/17 06:06:13;;;;;;;3.42;3.20;;;;;;;;;;5024084;28;20200;-63
2023/08/17 06:08:41;;;;;;;3.97;3.67;;;;;;;;;;5019835;28;20214;-62
2023/08/17 06:11:08;;;;;;;5.13;4.28;;;;;;;;;;5026126;28;20200;-63
2023/08/17 06:13:36;;;;;;;3.83;3.53;;;;;;;;;;5021751;28;20196;-63
2023/08/17 06:16:04;;;;;;;4.53;4.13;;;;;;;;;;5023035;28;20208;-64
2023/08/17 06:18:31;;;;;;;4.43;4.07;;;;;;;;;;5025230;28;20760;-62
2023/08/17 06:20:58;;;;;;;4.53;4.13;;;;;;;;;;5022807;28;20272;-62
2023/08/17 06:23:26;;;;;;;5.20;4.70;;;;;;;;;;5022214;28;20211;-63
2023/08/17 06:25:53;;;;;;;4.90;4.30;;;;;;;;;;5022965;28;20211;-63
2023/08/17 06:28:20;;;;;;;4.22;3.83;;;;;;;;;;5024827;28;20204;-63
2023/08/17 06:30:47;;;;;;;5.50;4.15;;;;;;;;;;5024931;28;20200;-62
2023/08/17 06:33:15;;;;;;;5.13;3.92;;;;;;;;;;5022634;28;20208;-62
2023/08/17 06:35:43;;;;;;;3.90;3.60;;;;;;;;;;5019863;28;20220;-63
2023/08/17 06:38:10;;;;;;;5.10;4.60;;;;;;;;;;5020876;28;20211;-63
2023/08/17 06:40:37;;;;;;;5.82;4.05;;;;;;;;;;5026442;28;20224;-63
2023/08/17 06:43:04;;;;;;;5.07;4.68;;;;;;;;;;5024110;28;20200;-63
2023/08/17 06:45:32;;;;;;;4.50;4.10;;;;;;;;;;5025446;28;20204;-62
2023/08/17 06:48:00;;;;;;;4.85;4.45;;;;;;;;;;5021868;28;20196;-63
2023/08/17 06:50:28;;;;;;;4.35;4.05;;;;;;;;;;5022016;28;20212;-62
2023/08/17 06:52:55;;;;;;;6.15;4.50;;;;;;;;;;5024477;28;20236;-63
2023/08/17 06:55:22;;;;;;;5.80;5.30;;;;;;;;;;5020181;28;20200;-63
2023/08/17 06:57:51;;;;;;;3.95;3.65;;;;;;;;;;5027292;28;20204;-62
2023/08/17 07:00:20;;;;;;;5.32;4.82;;;;;;;;;;5020103;28;20241;-62
2023/08/17 07:02:47;;;;;;;5.70;5.30;;;;;;;;;;5019210;28;20212;-62
2023/08/17 07:05:16;;;;;;;5.68;5.18;;;;;;;;;;5026914;28;20287;-62
2023/08/17 07:07:45;;;;;;;5.82;5.43;;;;;;;;;;5023523;28;20296;-62
2023/08/17 07:10:12;;;;;;;5.50;5.00;;;;;;;;;;5022185;28;20224;-62
2023/08/17 07:12:39;;;;;;;6.28;4.72;;;;;;;;;;5016500;28;20200;-62
2023/08/17 07:15:07;;;;;;;5.88;5.40;;;;;;;;;;5025475;28;20204;-63
2023/08/17 07:17:36;;;;;;;5.43;5.03;;;;;;;;;;5022229;28;20204;-63
2023/08/17 07:20:03;;;;;;;6.05;4.80;;;;;;;;;;5021632;28;20196;-63
2023/08/17 07:22:30;;;;;;;4.95;4.65;;;;;;;;;;5023435;28;20290;-62
2023/08/17 07:24:59;;;;;;;4.97;4.55;;;;;;;;;;5016652;28;20208;-62
2023/08/17 07:27:27;;;;;;;6.13;5.63;;;;;;;;;;5015775;28;20204;-63
2023/08/17 07:29:54;;;;;;;5.57;5.18;;;;;;;;;;5015168;28;20445;-63
2023/08/17 07:32:22;;;;;;;6.72;5.75;;;;;;;;;;5016181;28;20197;-63
2023/08/17 07:34:52;;;;;;;5.32;4.90;;;;;;;;;;5025094;28;20212;-63
2023/08/17 07:37:19;;;;;;;5.75;5.35;;;;;;;;;;5021058;28;20203;-63
2023/08/17 07:39:46;;;;;;;5.60;5.07;;;;;;;;;;5018418;28;20292;-62
2023/08/17 07:42:15;;;;;;;5.85;5.32;;;;;;;;;;5018880;28;20248;-63
2023/08/17 07:44:42;;;;;;;5.82;5.40;;;;;;;;;;5020206;28;20207;-63
2023/08/17 07:47:10;;;;;;;5.10;4.70;;;;;;;;;;5017041;28;20208;-63
2023/08/17 07:49:37;;;;;;;5.45;5.05;;;;;;;;;;5016850;28;20211;-62
2023/08/17 07:52:05;;;;;;;5.18;4.88;;;;;;;;;;5023600;28;20193;-62
2023/08/17 07:54:33;;;;;;;5.55;5.15;;;;;;;;;;5021744;28;20213;-63
2023/08/17 07:57:02;;;;;;;5.78;5.28;;;;;;;;;;5025002;28;20208;-63
2023/08/17 07:59:31;;;;;;;5.88;5.38;;;;;;;;;;5027616;28;20348;-62
2023/08/17 08:01:58;;;;;;;5.78;5.28;;;;;;;;;;5023334;28;20315;-68
2023/08/17 08:04:25;;;;;;;4.90;4.50;;;;;;;;;;5017474;28;20204;-68
2023/08/17 08:06:52;;;;;;;4.88;4.57;;;;;;;;;;5018965;28;20203;-67
2023/08/17 08:09:21;;;;;;;5.40;5.00;;;;;;;;;;5022111;28;20193;-68
2023/08/17 08:11:48;;;;;;;6.20;4.90;;;;;;;;;;5017406;28;20204;-68
2023/08/17 08:14:15;;;;;;;4.97;4.63;;;;;;;;;;5018531;28;20205;-68
2023/08/17 08:16:44;;;;;;;4.93;4.47;;;;;;;;;;5020638;28;20204;-68
2023/08/17 08:19:11;;;;;;;5.07;4.68;;;;;;;;;;5017924;28;20205;-69
2023/08/17 08:21:38;;;;;;;6.25;5.65;;;;;;;;;;5023458;28;20222;-68
2023/08/17 08:24:05;;;;;;;5.35;4.85;;;;;;;;;;5024134;28;20219;-69
2023/08/17 08:26:32;;;;;;;5.10;4.70;;;;;;;;;;5018296;28;20209;-70
2023/08/17 08:29:00;;;;;;;5.53;5.13;;;;;;;;;;5018942;28;20208;-70
2023/08/17 08:31:27;;;;;;;4.97;4.57;;;;;;;;;;5017580;28;20206;-69
2023/08/17 08:33:55;;;;;;;4.43;4.10;;;;;;;;;;5021291;28;20211;-69
2023/08/17 08:36:23;;;;;;;5.18;4.78;;;;;;;;;;5013709;28;20205;-69
2023/08/17 08:38:50;;;;;;;4.55;4.25;;;;;;;;;;5017154;28;20575;-68
2023/08/17 08:41:19;;;;;;;6.13;5.53;;;;;;;;;;5017323;28;20216;-68
2023/08/17 08:43:46;;;;;;;5.55;5.15;;;;;;;;;;5020170;28;20213;-68
2023/08/17 08:46:17;;;;;;;6.85;5.57;;;;;;;;;;5014553;28;20207;-68
2023/08/17 08:48:46;;;;;;;6.30;5.63;;;;;;;;;;5013308;28;20208;-67
2023/08/17 08:51:18;;;;;;;6.38;5.88;;;;;;;;;;5014422;28;20200;-68
2023/08/17 08:53:46;;;;;;;6.47;5.97;;;;;;;;;;5022209;28;20201;-68
2023/08/17 08:56:14;;;;;;;5.53;5.03;;;;;;;;;;5019543;28;20246;-68
2023/08/17 08:58:42;;;;;;;6.75;6.15;;;;;;;;;;5023242;28;20210;-68
2023/08/17 09:01:10;;;;;;;6.13;5.57;;;;;;;;;;5018261;28;20205;-69
2023/08/17 09:03:38;;;;;;;6.55;5.80;;;;;;;;;;5010489;28;20469;-68
2023/08/17 09:06:05;;;;;;;7.35;6.65;;;;;;;;;;5012972;28;20423;-68
2023/08/17 09:08:35;;;;;;;7.07;6.50;;;;;;;;;;5017738;28;20213;-70
2023/08/17 09:11:03;;;;;;;7.53;6.82;;;;;;;;;;5022100;28;20207;-70
2023/08/17 09:13:30;;;;;;;7.13;6.53;;;;;;;;;;5015905;28;21701;-69
2023/08/17 09:16:00;;;;;;;7.43;6.82;;;;;;;;;;5018934;28;20231;-68
2023/08/17 09:18:31;;;;;;;8.15;7.45;;;;;;;;;;5013078;28;20208;-67
2023/08/17 09:20:58;;;;;;;8.23;7.47;;;;;;;;;;5015464;28;20204;-68
2023/08/17 09:23:25;;;;;;;7.72;7.10;;;;;;;;;;5017215;28;20270;-67
2023/08/17 09:25:57;;;;;;;7.35;6.75;;;;;;;;;;5016899;28;20196;-70
2023/08/17 09:28:25;;;;;;;7.15;6.55;;;;;;;;;;5019415;28;20300;-67
2023/08/17 09:30:53;;;;;;;7.25;6.65;;;;;;;;;;5018205;28;20213;-68
2023/08/17 09:33:21;;;;;;;6.85;6.32;;;;;;;;;;5016707;28;20196;-69
2023/08/17 09:35:48;;;;;;;6.28;5.80;;;;;;;;;;5017446;28;20211;-68
2023/08/17 09:38:16;;;;;;;6.60;6.00;;;;;;;;;;5014889;28;20204;-67
2023/08/17 09:40:44;;;;;;;6.65;6.15;;;;;;;;;;5012334;28;20231;-67
2023/08/17 09:43:13;;;;;;;6.32;5.82;;;;;;;;;;5015740;28;20225;-67
2023/08/17 09:45:40;;;;;;;5.70;5.30;;;;;;;;;;5018749;28;20196;-67
2023/08/17 09:48:08;;;;;;;5.53;5.13;;;;;;;;;;5012457;28;20204;-66
2023/08/17 09:50:35;;;;;;;5.18;4.78;;;;;;;;;;5016291;28;20223;-68
2023/08/17 09:53:03;;;;;;;6.03;5.53;;;;;;;;;;5019782;28;20208;-69
2023/08/17 09:55:32;;;;;;;5.72;5.32;;;;;;;;;;5016865;28;20204;-66
2023/08/17 09:57:59;;;;;;;5.78;5.22;;;;;;;;;;5021787;28;20212;-67
2023/08/17 10:00:29;;;;;;;5.30;4.93;;;;;;;;;;5018648;28;20239;-68
2023/08/17 10:02:56;;;;;;;6.07;5.55;;;;;;;;;;5017601;28;20228;-68
2023/08/17 10:05:24;;;;;;;5.40;4.90;;;;;;;;;;5017146;28;20208;-68
2023/08/17 10:07:54;;;;;;;5.20;4.80;;;;;;;;;;5018014;28;20215;-67
2023/08/17 10:10:26;;;;;;;6.35;5.22;;;;;;;;;;5016785;28;20204;-68
2023/08/17 10:12:55;;;;;;;5.40;4.85;;;;;;;;;;5013210;28;20199;-68
2023/08/17 10:15:23;;;;;;;5.35;4.95;;;;;;;;;;5015800;28;20196;-67
2023/08/17 10:17:57;;;;;;;5.15;4.70;;;;;;;;;;5022498;28;20210;-67
2023/08/17 10:20:25;;;;;;;5.38;4.88;;;;;;;;;;5020871;28;20216;-67
2023/08/17 10:22:54;;;;;;;5.25;4.85;;;;;;;;;;5024823;28;20224;-62
2023/08/17 10:25:21;;;;;;;5.07;4.65;;;;;;;;;;5025270;28;20327;-62
2023/08/17 10:27:49;;;;;;;4.88;4.47;;;;;;;;;;5023872;28;20267;-62
2023/08/17 10:30:21;;;;;;;6.20;4.97;;;;;;;;;;5013473;28;20207;-62
2023/08/17 10:32:51;;;;;;;4.60;4.30;;;;;;;;;;5022786;28;20273;-62
2023/08/17 10:35:25;;;;;;;4.80;4.40;;;;;;;;;;5020524;28;20214;-63
2023/08/17 10:37:54;;;;;;;4.63;4.28;;;;;;;;;;5021800;28;20212;-62
2023/08/17 10:40:28;;;;;;;4.65;4.25;;;;;;;;;;5021485;28;20204;-63
2023/08/17 10:42:58;;;;;;;4.57;4.28;;;;;;;;;;5028646;28;20221;-62
2023/08/17 10:45:30;;;;;;;4.40;4.10;;;;;;;;;;5027029;28;20216;-62
2023/08/17 10:48:17;;;;;;;4.40;4.07;;;;;;;;;;5023891;28;20249;-62
2023/08/17 10:51:00;;;;;;;4.30;3.90;;;;;;;;;;5026441;28;20227;-63
2023/08/17 10:53:28;;;;;;;4.70;4.20;;;;;;;;;;5022276;28;20205;-64
2023/08/17 10:55:59;;;;;;;4.30;3.90;;;;;;;;;;5017159;28;20196;-63
2023/08/17 10:58:33;;;;;;;3.88;3.63;;;;;;;;;;5022764;28;20214;-63
2023/08/17 11:01:02;;;;;;;4.05;3.75;;;;;;;;;;5027231;28;20259;-62
2023/08/17 11:03:30;;;;;;;4.10;3.80;;;;;;;;;;5022998;28;20227;-62
2023/08/17 11:06:15;;;;;;;4.18;3.63;;;;;;;;;;5016019;28;20205;-62
2023/08/17 11:08:53;;;;;;;4.35;3.92;;;;;;;;;;5021223;28;20204;-62
2023/08/17 11:11:23;;;;;;;4.25;3.95;;;;;;;;;;5017679;28;20214;-62
2023/08/17 11:13:52;;;;;;;4.40;4.05;;;;;;;;;;5019365;28;20213;-61
2023/08/17 11:16:20;;;;;;;4.53;4.13;;;;;;;;;;5021035;28;20197;-63
2023/08/17 11:18:49;;;;;;;4.50;4.10;;;;;;;;;;5019862;28;20207;-62
2023/08/17 11:21:18;;;;;;;4.30;3.90;;;;;;;;;;5022768;28;20211;-62
2023/08/17 11:23:45;;;;;;;4.95;4.43;;;;;;;;;;5022481;28;20224;-63
2023/08/17 11:26:12;;;;;;;4.70;4.28;;;;;;;;;;5024945;28;20243;-62
2023/08/17 11:28:40;;;;;;;5.15;4.20;;;;;;;;;;5025312;28;20220;-63
2023/08/17 11:31:09;;;;;;;4.70;4.30;;;;;;;;;;5021987;28;20209;-61
2023/08/17 11:33:37;;;;;;;4.97;4.57;;;;;;;;;;5018142;28;20201;-67
2023/08/17 11:36:05;;;;;;;4.75;4.35;;;;;;;;;;5020224;28;20216;-68
2023/08/17 11:38:34;;;;;;;4.40;4.10;;;;;;;;;;5017395;28;20255;-67
2023/08/17 11:41:02;;;;;;;4.90;4.32;;;;;;;;;;5012663;28;20205;-68
2023/08/17 11:43:30;;;;;;;4.30;4.00;;;;;;;;;;5021131;28;20250;-68
2023/08/17 11:45:57;;;;;;;4.05;3.75;;;;;;;;;;5015374;28;20192;-68
2023/08/17 11:48:25;;;;;;;4.20;3.90;;;;;;;;;;5016848;28;20306;-67
2023/08/17 11:50:53;;;;;;;5.68;4.20;;;;;;;;;;5022458;28;20208;-68
2023/08/17 11:53:20;;;;;;;3.67;3.47;;;;;;;;;;5020922;28;20193;-68
2023/08/17 11:55:49;;;;;;;3.70;3.50;;;;;;;;;;5017146;28;20200;-68
2023/08/17 11:58:16;;;;;;;4.20;3.90;;;;;;;;;;5022334;28;20200;-68
2023/08/17 12:00:45;;;;;;;3.90;3.60;;;;;;;;;;5018337;28;20232;-68
2023/08/17 12:03:15;;;;;;;3.58;3.38;;;;;;;;;;5022200;28;20225;-68
2023/08/17 12:05:43;;;;;;;3.80;3.50;;;;;;;;;;5021675;28;20212;-67
2023/08/17 12:08:10;;;;;;;3.28;3.08;;;;;;;;;;5020830;28;20200;-68
2023/08/17 12:10:38;;;;;;;3.70;3.40;;;;;;;;;;5027783;28;20202;-69
2023/08/17 12:13:07;;;;;;;3.42;3.00;;;;;;;;;;5019693;28;20208;-69
2023/08/17 12:15:35;;;;;;;3.55;3.25;;;;;;;;;;5023890;28;20207;-68
2023/08/17 12:18:04;;;;;;;3.38;3.08;;;;;;;;;;5026424;28;20200;-68
2023/08/17 12:20:31;;;;;;;3.35;3.15;;;;;;;;;;5022429;28;20207;-67
2023/08/17 12:22:59;;;;;;;3.10;2.90;;;;;;;;;;5025132;28;20239;-68
2023/08/17 12:25:26;;;;;;;3.00;2.80;;;;;;;;;;5019858;28;20227;-68
2023/08/17 12:27:54;;;;;;;3.03;2.83;;;;;;;;;;5020560;28;20211;-68
2023/08/17 12:30:29;;;;;;;3.70;3.15;;;;;;;;;;5022276;28;20240;-68
2023/08/17 12:32:56;;;;;;;3.53;3.22;;;;;;;;;;5024770;28;20200;-70
2023/08/17 12:35:24;;;;;;;3.13;2.92;;;;;;;;;;5022408;28;20210;-68
2023/08/17 12:37:51;;;;;;;3.17;2.88;;;;;;;;;;5023420;28;20200;-68
2023/08/17 12:40:19;;;;;;;3.05;2.80;;;;;;;;;;5022130;28;20206;-70
2023/08/17 12:42:46;;;;;;;3.08;2.85;;;;;;;;;;5019559;28;20220;-62
2023/08/17 12:45:13;;;;;;;3.00;2.75;;;;;;;;;;5017826;28;20215;-62
2023/08/17 12:47:42;;;;;;;3.28;2.97;;;;;;;;;;5020291;28;20209;-62
2023/08/17 12:50:09;;;;;;;4.07;3.10;;;;;;;;;;5018663;28;20204;-62
2023/08/17 12:52:36;;;;;;;3.10;2.90;;;;;;;;;;5023119;28;20201;-62
2023/08/17 12:55:04;;;;;;;3.63;3.30;;;;;;;;;;5019777;28;20295;-62
2023/08/17 12:57:31;;;;;;;3.33;3.10;;;;;;;;;;5017988;28;20208;-62
2023/08/17 12:59:58;;;;;;;3.40;3.20;;;;;;;;;;5019508;28;20246;-63
2023/08/17 13:02:25;;;;;;;3.28;3.08;;;;;;;;;;5021177;28;20216;-63
2023/08/17 13:04:54;;;;;;;3.35;3.13;;;;;;;;;;5018903;28;20200;-62
2023/08/17 13:07:21;;;;;;;3.67;3.47;;;;;;;;;;5018979;28;20204;-62
2023/08/17 13:09:48;;;;;;;3.47;3.05;;;;;;;;;;5022634;28;20206;-61
2023/08/17 13:12:15;;;;;;;3.55;3.35;;;;;;;;;;5020643;28;20200;-61
2023/08/17 13:14:42;;;;;;;3.55;3.35;;;;;;;;;;5017781;28;20200;-62
2023/08/17 13:17:10;;;;;;;3.10;2.90;;;;;;;;;;5019364;28;20204;-63
2023/08/17 13:19:37;;;;;;;3.33;3.08;;;;;;;;;;5019356;28;20212;-63
2023/08/17 13:22:05;;;;;;;3.42;3.17;;;;;;;;;;5022215;28;20206;-63
2023/08/17 13:24:32;;;;;;;3.60;2.85;;;;;;;;;;5021085;28;20235;-63
2023/08/17 13:27:00;;;;;;;4.05;3.15;;;;;;;;;;5022109;28;20438;-63
2023/08/17 13:29:27;;;;;;;3.20;3.00;;;;;;;;;;5015065;28;20235;-62
2023/08/17 13:31:54;;;;;;;3.55;3.25;;;;;;;;;;5021019;28;20208;-63
2023/08/17 13:34:21;;;;;;;3.38;3.13;;;;;;;;;;5020611;28;20203;-62
2023/08/17 13:36:48;;;;;;;3.72;3.20;;;;;;;;;;5018441;28;20208;-62
2023/08/17 13:39:17;;;;;;;3.05;2.80;;;;;;;;;;5018501;28;20211;-61
2023/08/17 13:41:44;;;;;;;3.15;2.92;;;;;;;;;;5023448;28;20320;-62
2023/08/17 13:44:11;;;;;;;3.13;2.92;;;;;;;;;;5020025;28;20227;-62
2023/08/17 13:46:39;;;;;;;2.67;2.55;;;;;;;;;;5027219;28;20196;-63
2023/08/17 13:49:06;;;;;;;3.17;2.90;;;;;;;;;;5016477;28;20227;-63
2023/08/17 13:51:33;;;;;;;3.03;2.83;;;;;;;;;;5026149;28;20208;-69
2023/08/17 13:54:00;;;;;;;2.75;2.60;;;;;;;;;;5020941;28;20201;-68
2023/08/17 13:56:29;;;;;;;3.25;2.95;;;;;;;;;;5027766;28;20215;-68
2023/08/17 13:58:56;;;;;;;2.88;2.40;;;;;;;;;;5028140;28;20208;-68
2023/08/17 14:01:23;;;;;;;2.35;2.25;;;;;;;;;;5028946;28;20207;-69
2023/08/17 14:03:50;;;;;;;2.53;2.33;;;;;;;;;;5028648;28;20231;-68
2023/08/17 14:06:17;;;;;;;2.50;2.30;;;;;;;;;;5020333;28;20212;-68
2023/08/17 14:08:45;;;;;;;2.50;2.35;;;;;;;;;;5022887;28;20208;-68
2023/08/17 14:11:12;;;;;;;2.83;2.63;;;;;;;;;;5025425;28;20208;-68
2023/08/17 14:13:40;;;;;;;2.45;2.30;;;;;;;;;;5018296;28;20211;-68
2023/08/17 14:16:07;;;;;;;2.40;2.20;;;;;;;;;;5022742;28;20208;-69
2023/08/17 14:18:34;;;;;;;2.33;2.13;;;;;;;;;;5020992;28;20208;-68
2023/08/17 14:21:02;;;;;;;2.20;2.10;;;;;;;;;;5026584;28;20208;-68
2023/08/17 14:23:29;;;;;;;2.85;2.15;;;;;;;;;;5019900;28;20222;-67
2023/08/17 14:25:56;;;;;;;1.95;1.85;;;;;;;;;;5033682;28;20210;-68
2023/08/17 14:28:23;;;;;;;2.15;2.00;;;;;;;;;;5027955;28;20227;-69
2023/08/17 14:30:52;;;;;;;2.28;2.15;;;;;;;;;;5026052;28;20207;-68
2023/08/17 14:33:19;;;;;;;2.75;2.55;;;;;;;;;;5032289;28;20202;-69
2023/08/17 14:35:46;;;;;;;3.35;2.30;;;;;;;;;;5026595;28;20286;-68
2023/08/17 14:38:13;;;;;;;2.17;2.00;;;;;;;;;;5021372;28;20287;-66
2023/08/17 14:40:43;;;;;;;2.25;2.10;;;;;;;;;;5026230;28;20216;-68
2023/08/17 14:43:11;;;;;;;2.28;2.05;;;;;;;;;;5027329;28;20204;-68
2023/08/17 14:45:39;;;;;;;2.25;2.10;;;;;;;;;;5021834;28;20204;-67